»·PEaware :: N629J KSNA-KAVX

N629J :: KSNA-KAVX

FLIGHT INFORMATION

Flight Status: Arrived
Operator: Privately registered:
United States
More flights under this callsign
Pilot: Thiago S. (19132)
Aircraft: BEECH AIRCRAFT A90-E90 KING AIR
(BE9L)
More flights by this aircraft type
Origin: KSNA John Wayne-Orange Co
United States
Destination: KAVX Catalina
United States
More flights between these airports :: More routes between these airports
Route: +SLI V21 SXC
File this flight plan on PilotEdge
Remarks: I RATING 7
Altitude:
(Current/Filed)
6,000ft
Speed:
(Current/Filed)
200kts
Departed: 20-Feb-19 05:49 PM
Arrived: 20-Feb-19 06:32 PM
Distance/Time
Traveled:
32nm/0:42
Distance/Time
To Go:
Arrived

Flight Plot

Page will automatically refresh every two minutes.


Map Options




Map Legend


Flown Route
Filed Route
Departure Airport
Arrival Airport
Navaid (VOR, NDB)
Fix

Horizontal Profiles

Position Reports

Time Latitude Longitude Heading Altitude Ground
Speed
20-Feb-19 17:23 33.665762 -117.873240 227 61ft 0kts
20-Feb-19 17:24 33.665762 -117.873240 227 61ft 0kts
20-Feb-19 17:25 33.665762 -117.873240 227 61ft 0kts
20-Feb-19 17:26 33.665762 -117.873240 227 61ft 0kts
20-Feb-19 17:27 33.665762 -117.873240 227 61ft 0kts
20-Feb-19 17:28 33.665762 -117.873240 227 61ft 0kts
20-Feb-19 17:29 33.665762 -117.873240 227 61ft 0kts
20-Feb-19 17:30 33.665762 -117.873240 227 61ft 0kts
20-Feb-19 17:31 33.665762 -117.873240 227 61ft 0kts
20-Feb-19 17:32 33.665761 -117.873241 227 61ft 0kts
20-Feb-19 17:33 33.665758 -117.873245 227 61ft 0kts
20-Feb-19 17:34 33.665755 -117.873248 227 61ft 0kts
20-Feb-19 17:35 33.665752 -117.873252 227 61ft 0kts
20-Feb-19 17:36 33.665750 -117.873255 227 61ft 0kts
20-Feb-19 17:37 33.665748 -117.873258 227 61ft 0kts
20-Feb-19 17:38 33.665746 -117.873261 227 61ft 0kts
20-Feb-19 17:39 33.665853 -117.873734 355 61ft 1kts
20-Feb-19 17:40 33.666459 -117.873427 29 61ft 4kts
20-Feb-19 17:41 33.667467 -117.872622 35 61ft 7kts
20-Feb-19 17:42 33.669131 -117.870902 41 61ft 8kts
20-Feb-19 17:43 33.671302 -117.868706 33 61ft 15kts
20-Feb-19 17:44 33.675474 -117.865624 27 61ft 18kts
20-Feb-19 17:45 33.679511 -117.863099 6 61ft 7kts
20-Feb-19 17:46 33.679940 -117.863631 298 61ft 0kts
20-Feb-19 17:47 33.680075 -117.864126 251 61ft 9kts
20-Feb-19 17:48 33.666983 -117.872476 208 418ft 100kts
20-Feb-19 17:49 33.637257 -117.879767 186 1536ft 124kts
20-Feb-19 17:50 33.602257 -117.885467 187 2722ft 129kts
20-Feb-19 17:51 33.564064 -117.891376 186 3586ft 152kts
20-Feb-19 17:52 33.519709 -117.896467 185 3979ft 171kts
20-Feb-19 17:53 33.470024 -117.903378 189 4001ft 185kts
20-Feb-19 17:54 33.453341 -117.948654 284 4004ft 191kts
20-Feb-19 17:55 33.466368 -118.010756 282 4000ft 192kts
20-Feb-19 17:56 33.479259 -118.073035 282 3991ft 191kts
20-Feb-19 17:57 33.491586 -118.131963 283 3990ft 191kts
20-Feb-19 17:58 33.504334 -118.193801 283 3998ft 190kts
20-Feb-19 17:59 33.507818 -118.254925 239 4000ft 189kts
20-Feb-19 18:00 33.484993 -118.311463 242 4003ft 189kts
20-Feb-19 18:01 33.447200 -118.354263 208 4006ft 191kts
20-Feb-19 18:02 33.405447 -118.392607 215 4003ft 190kts
20-Feb-19 18:03 33.366433 -118.434451 260 3969ft 187kts
20-Feb-19 18:04 33.404573 -118.457053 12 3821ft 205kts
20-Feb-19 18:05 33.460477 -118.436188 15 3404ft 206kts
20-Feb-19 18:06 33.514611 -118.420417 350 3399ft 196kts
20-Feb-19 18:07 33.557987 -118.457005 318 3406ft 188kts
20-Feb-19 18:08 33.599745 -118.467606 58 3406ft 177kts
20-Feb-19 18:09 33.574436 -118.429746 153 3412ft 167kts
20-Feb-19 18:10 33.531471 -118.407788 155 2885ft 186kts
20-Feb-19 18:11 33.481208 -118.402088 197 2313ft 180kts
20-Feb-19 18:12 33.438119 -118.410538 192 2146ft 125kts
20-Feb-19 18:13 33.407395 -118.411763 241 1643ft 111kts
20-Feb-19 18:14 33.393708 -118.439576 252 2333ft 108kts
20-Feb-19 18:15 33.380330 -118.476240 246 3325ft 134kts
20-Feb-19 18:16 33.402701 -118.502911 31 3410ft 191kts
20-Feb-19 18:17 33.398425 -118.442917 122 3403ft 207kts
20-Feb-19 18:18 33.407288 -118.387826 9 3367ft 206kts
20-Feb-19 18:19 33.463043 -118.396823 348 3394ft 203kts
20-Feb-19 18:20 33.514319 -118.419819 319 3394ft 201kts
20-Feb-19 18:21 33.554750 -118.459921 326 3389ft 191kts
20-Feb-19 18:22 33.580815 -118.427713 125 3395ft 182kts
20-Feb-19 18:23 33.541526 -118.393876 173 2894ft 187kts
20-Feb-19 18:24 33.494414 -118.399522 194 2316ft 143kts
20-Feb-19 18:25 33.460774 -118.405499 187 2313ft 121kts
20-Feb-19 18:26 33.426744 -118.413913 209 2437ft 112kts
20-Feb-19 18:27 33.413470 -118.406629 28 2037ft 127kts
20-Feb-19 18:28 33.444408 -118.389261 13 1885ft 116kts
20-Feb-19 18:29 33.436096 -118.375329 250 1817ft 84kts
20-Feb-19 18:30 33.416380 -118.395900 241 1874ft 90kts
20-Feb-19 18:31 33.404611 -118.416490 230 1607ft 29kts
20-Feb-19 18:32 33.402312 -118.419686 107 1607ft 3kts
20-Feb-19 18:33 33.403461 -118.417657 54 1607ft 11kts
20-Feb-19 18:34 33.404733 -118.415137 144 1607ft 6kts
20-Feb-19 18:35 33.403794 -118.415534 241 1607ft 2kts
20-Feb-19 18:36 33.403605 -118.415487 136 1607ft 0kts
20-Feb-19 18:37 33.403604 -118.415486 136 1607ft 0kts
20-Feb-19 18:38 33.403674 -118.415566 136 1607ft 1kts
20-Feb-19 18:39 33.403677 -118.415570 136 1607ft 0kts
20-Feb-19 18:40 33.403677 -118.415570 136 1607ft 0kts
20-Feb-19 18:41 33.403677 -118.415570 136 1607ft 0kts

Navigation Log

Ident Type
Flight plan parsing failed, navigation log unavailable